Time;durP1;ratioP1;P1;durP2;ratioP2;P2;SDS_P1;SDS_P2;PMS_P1;PMS_P2;Temp;Humidity;BMP_temperature;BMP_pressure;BME280_temperature;BME280_humidity;BME280_pressure;Samples;Min_cycle;Max_cycle;Signal;HPM_P1;HPM_P2
2022/01/09 00:00:26;;;;;;;0.60;0.50;;;3.90;99.90;;;;;;5011310;28;20026;-60
2022/01/09 00:02:58;;;;;;;0.50;0.50;;;3.90;99.90;;;;;;5010030;28;20040;-60
2022/01/09 00:05:24;;;;;;;0.63;0.50;;;3.90;99.90;;;;;;5013130;28;20440;-59
2022/01/09 00:07:50;;;;;;;0.75;0.50;;;3.90;99.90;;;;;;5007959;28;20073;-60
2022/01/09 00:10:17;;;;;;;0.80;0.40;;;3.90;99.90;;;;;;5018593;28;20038;-59
2022/01/09 00:12:43;;;;;;;0.40;0.40;;;3.90;99.90;;;;;;5012903;28;20080;-59
2022/01/09 00:15:09;;;;;;;3.05;0.50;;;3.90;99.90;;;;;;5007435;28;20038;-59
2022/01/09 00:17:35;;;;;;;0.60;0.47;;;3.90;99.90;;;;;;5002741;28;20038;-59
2022/01/09 00:20:01;;;;;;;0.73;0.40;;;3.90;99.90;;;;;;5007151;28;20037;-61
2022/01/09 00:22:37;;;;;;;0.82;0.47;;;3.90;99.90;;;;;;5008011;28;20029;-60
2022/01/09 00:25:04;;;;;;;0.88;0.47;;;3.90;99.90;;;;;;5017187;28;20141;-60
2022/01/09 00:27:30;;;;;;;0.50;0.47;;;3.90;99.90;;;;;;5010879;28;20400;-59
2022/01/09 00:30:06;;;;;;;0.32;0.32;;;3.90;99.90;;;;;;5012429;28;20033;-59
2022/01/09 00:32:32;;;;;;;0.85;0.47;;;3.90;99.90;;;;;;5014066;28;20502;-60
2022/01/09 00:34:58;;;;;;;0.47;0.40;;;3.90;99.90;;;;;;5004873;28;20113;-60
2022/01/09 00:37:24;;;;;;;0.77;0.32;;;3.90;99.90;;;;;;5008592;28;20052;-60
2022/01/09 00:39:49;;;;;;;0.73;0.50;;;3.90;99.90;;;;;;5018095;28;20033;-59
2022/01/09 00:42:15;;;;;;;3.20;0.55;;;3.90;99.90;;;;;;5010169;28;20030;-60
2022/01/09 00:44:41;;;;;;;0.77;0.50;;;3.90;99.90;;;;;;5011927;28;20036;-60
2022/01/09 00:47:06;;;;;;;0.85;0.60;;;3.90;99.90;;;;;;5011839;28;20033;-60
2022/01/09 00:49:32;;;;;;;4.95;0.43;;;3.90;99.90;;;;;;5013803;28;20470;-60
2022/01/09 00:51:57;;;;;;;0.93;0.63;;;3.90;99.90;;;;;;5010852;28;20026;-60
2022/01/09 00:54:23;;;;;;;1.63;0.40;;;3.90;99.90;;;;;;5009145;28;20062;-58
2022/01/09 00:56:49;;;;;;;0.70;0.30;;;3.90;99.90;;;;;;5009551;28;20057;-59
2022/01/09 00:59:15;;;;;;;0.40;0.40;;;3.90;99.90;;;;;;5011044;28;20124;-59
2022/01/09 01:01:40;;;;;;;0.98;0.57;;;3.90;99.90;;;;;;5013490;28;20025;-60
2022/01/09 01:04:06;;;;;;;1.60;0.50;;;3.90;99.90;;;;;;5009489;28;20570;-60
2022/01/09 01:06:31;;;;;;;0.35;0.30;;;3.90;99.90;;;;;;5016174;28;20022;-58
2022/01/09 01:08:57;;;;;;;0.43;0.43;;;3.90;99.90;;;;;;5021599;28;20037;-59
2022/01/09 01:11:23;;;;;;;3.60;0.70;;;3.90;99.90;;;;;;5029667;28;20087;-60
2022/01/09 01:13:48;;;;;;;0.90;0.50;;;3.80;99.90;;;;;;5013165;28;20491;-60
2022/01/09 01:16:14;;;;;;;0.63;0.45;;;3.80;99.90;;;;;;5019068;28;20035;-57
2022/01/09 01:18:43;;;;;;;0.47;0.40;;;3.80;99.90;;;;;;5019170;28;20033;-59
2022/01/09 01:21:09;;;;;;;1.33;0.40;;;3.80;99.90;;;;;;5022143;28;20272;-60
2022/01/09 01:23:34;;;;;;;0.90;0.40;;;3.80;99.90;;;;;;5014669;28;20026;-60
2022/01/09 01:26:09;;;;;;;1.08;0.50;;;3.80;99.90;;;;;;5017143;28;20087;-59
2022/01/09 01:28:35;;;;;;;0.68;0.47;;;3.80;99.90;;;;;;5004933;28;20045;-60
2022/01/09 01:31:00;;;;;;;0.40;0.30;;;3.80;99.90;;;;;;5010355;28;20037;-61
2022/01/09 01:33:26;;;;;;;0.95;0.63;;;3.80;99.90;;;;;;5011491;28;20037;-60
2022/01/09 01:35:52;;;;;;;0.55;0.40;;;3.80;99.90;;;;;;5013437;28;20032;-59
2022/01/09 01:38:18;;;;;;;0.55;0.40;;;3.80;99.90;;;;;;5012845;28;20523;-59
2022/01/09 01:40:43;;;;;;;0.45;0.40;;;3.80;99.90;;;;;;5017557;28;20037;-60
2022/01/09 01:43:09;;;;;;;4.28;0.50;;;3.80;99.90;;;;;;5009193;28;20030;-60
2022/01/09 01:45:35;;;;;;;0.88;0.40;;;3.80;99.90;;;;;;5011363;28;20431;-59
2022/01/09 01:48:06;;;;;;;0.95;0.45;;;3.80;99.90;;;;;;5007436;28;20029;-59
2022/01/09 01:50:37;;;;;;;0.30;0.20;;;3.80;99.90;;;;;;5005260;28;20088;-59
2022/01/09 01:53:10;;;;;;;0.38;0.38;;;3.80;99.90;;;;;;5009849;28;20025;-59
2022/01/09 01:55:37;;;;;;;1.65;0.70;;;3.80;99.90;;;;;;5012338;28;20038;-60
2022/01/09 01:58:08;;;;;;;0.65;0.35;;;3.80;99.90;;;;;;5007235;28;20018;-60
2022/01/09 02:00:41;;;;;;;0.40;0.28;;;3.80;99.90;;;;;;5016739;28;20101;-60
2022/01/09 02:03:09;;;;;;;4.50;0.50;;;3.80;99.90;;;;;;5007387;28;20040;-60
2022/01/09 02:05:35;;;;;;;1.08;0.38;;;3.80;99.90;;;;;;5028001;28;20049;-60
2022/01/09 02:08:02;;;;;;;0.35;0.30;;;3.80;99.90;;;;;;5021424;28;20380;-60
2022/01/09 02:10:28;;;;;;;1.05;0.50;;;3.80;99.90;;;;;;5007450;28;20030;-60
2022/01/09 02:12:56;;;;;;;2.33;0.63;;;3.80;99.90;;;;;;5011936;28;20113;-59
2022/01/09 02:15:33;;;;;;;10.00;0.50;;;3.80;99.90;;;;;;5007981;28;20472;-60
2022/01/09 02:18:08;;;;;;;1.85;0.30;;;3.90;99.90;;;;;;5009922;28;20037;-59
2022/01/09 02:20:35;;;;;;;0.75;0.50;;;3.90;99.90;;;;;;5012616;28;20500;-59
2022/01/09 02:23:08;;;;;;;0.75;0.40;;;3.80;99.90;;;;;;5005335;28;20512;-59
2022/01/09 02:25:35;;;;;;;0.88;0.38;;;3.80;99.90;;;;;;5004990;28;20030;-60
2022/01/09 02:28:01;;;;;;;0.80;0.60;;;3.80;99.90;;;;;;5007654;28;20026;-60
2022/01/09 02:30:27;;;;;;;0.70;0.60;;;3.90;99.90;;;;;;5011747;28;20018;-59
2022/01/09 02:32:53;;;;;;;1.17;0.60;;;3.90;99.90;;;;;;5013252;28;20030;-60
2022/01/09 02:35:23;;;;;;;1.27;0.70;;;3.90;99.90;;;;;;5013503;28;20026;-57
2022/01/09 02:37:49;;;;;;;1.48;0.63;;;3.90;99.90;;;;;;5012294;28;20052;-60
2022/01/09 02:40:17;;;;;;;1.30;1.00;;;3.90;99.90;;;;;;5009004;28;20029;-60
2022/01/09 02:42:43;;;;;;;2.35;1.58;;;4.00;99.90;;;;;;5002829;28;20036;-60
2022/01/09 02:45:09;;;;;;;4.45;1.98;;;4.10;99.90;;;;;;5012788;28;20038;-60
2022/01/09 02:47:36;;;;;;;4.30;0.90;;;4.20;99.90;;;;;;5013832;28;20423;-58
2022/01/09 02:53:01;;;;;;;1.98;1.33;;;4.20;99.90;;;;;;4981765;28;20035;-58
2022/01/09 02:55:29;;;;;;;1.10;0.95;;;4.20;99.90;;;;;;5013658;28;20042;-59
2022/01/09 02:57:57;;;;;;;2.70;0.40;;;4.20;99.90;;;;;;5013220;28;20026;-60
2022/01/09 03:00:26;;;;;;;0.25;0.22;;;4.20;99.90;;;;;;5013188;28;20053;-58
2022/01/09 03:02:52;;;;;;;0.47;0.20;;;4.00;99.90;;;;;;5008137;28;20045;-58
2022/01/09 03:05:18;;;;;;;0.32;0.20;;;3.90;99.90;;;;;;5004422;28;20033;-60
2022/01/09 03:07:45;;;;;;;2.08;0.30;;;3.80;99.90;;;;;;5012052;28;20034;-60
2022/01/09 03:10:12;;;;;;;0.20;0.20;;;3.70;99.90;;;;;;5012773;28;20022;-59
2022/01/09 03:12:39;;;;;;;0.35;0.17;;;3.60;99.90;;;;;;5012488;28;20033;-58
2022/01/09 03:15:06;;;;;;;1.83;0.70;;;3.50;99.90;;;;;;5011663;28;20034;-59
2022/01/09 03:17:32;;;;;;;0.43;0.20;;;3.40;99.90;;;;;;5005619;28;20029;-59
2022/01/09 03:19:58;;;;;;;1.95;0.30;;;3.40;99.90;;;;;;5004294;28;20867;-58
2022/01/09 03:22:23;;;;;;;3.10;0.63;;;3.30;99.90;;;;;;5009478;28;20061;-59
2022/01/09 03:24:49;;;;;;;2.20;0.30;;;3.30;99.90;;;;;;5012046;28;20495;-58
2022/01/09 03:27:15;;;;;;;2.53;0.52;;;3.30;99.90;;;;;;5013328;28;20029;-59
2022/01/09 03:29:41;;;;;;;1.27;0.40;;;3.40;99.90;;;;;;5015590;28;20056;-59
2022/01/09 03:32:08;;;;;;;5.32;0.80;;;3.40;99.90;;;;;;5016899;28;20025;-60
2022/01/09 03:34:34;;;;;;;3.65;0.98;;;3.50;99.90;;;;;;5001373;28;20038;-58
2022/01/09 03:37:00;;;;;;;6.35;1.08;;;3.50;99.90;;;;;;5008438;28;20038;-58
2022/01/09 03:39:26;;;;;;;6.88;1.17;;;3.60;99.90;;;;;;5011462;28;20104;-58
2022/01/09 03:41:54;;;;;;;11.77;2.58;;;3.60;99.90;;;;;;5012017;28;20046;-59
2022/01/09 03:44:20;;;;;;;12.30;1.25;;;3.70;99.90;;;;;;5011932;28;20022;-59
2022/01/09 03:46:46;;;;;;;8.60;1.38;;;3.70;99.90;;;;;;5010310;28;20057;-59
2022/01/09 03:49:12;;;;;;;10.00;1.85;;;3.70;99.90;;;;;;5004037;28;20050;-58
2022/01/09 03:51:38;;;;;;;16.45;3.05;;;3.80;99.90;;;;;;5010934;28;20113;-60
2022/01/09 03:54:05;;;;;;;13.88;2.03;;;3.80;99.90;;;;;;5012288;28;20022;-59
2022/01/09 03:56:30;;;;;;;11.70;1.80;;;3.80;99.90;;;;;;5017775;28;20070;-59
2022/01/09 03:58:56;;;;;;;21.20;3.85;;;3.90;99.90;;;;;;5002490;28;20527;-59
2022/01/09 04:01:24;;;;;;;17.65;2.05;;;3.90;99.90;;;;;;5007020;28;20105;-60
2022/01/09 04:03:51;;;;;;;16.70;2.50;;;4.00;99.90;;;;;;5009670;28;20033;-59
2022/01/09 04:06:17;;;;;;;17.55;2.53;;;4.00;99.90;;;;;;5011679;28;20029;-59
2022/01/09 04:08:42;;;;;;;13.90;1.75;;;4.00;99.90;;;;;;5010459;28;20092;-59
2022/01/09 04:11:10;;;;;;;20.98;3.83;;;4.10;99.90;;;;;;5012077;28;20403;-60
2022/01/09 04:13:38;;;;;;;18.45;2.70;;;4.10;99.90;;;;;;5010742;28;20137;-60
2022/01/09 04:16:04;;;;;;;16.70;3.45;;;4.10;99.90;;;;;;5012126;28;20026;-58
2022/01/09 04:18:31;;;;;;;15.70;3.72;;;4.10;99.90;;;;;;5010495;28;20498;-59
2022/01/09 04:20:58;;;;;;;19.60;2.75;;;4.10;99.90;;;;;;5011075;28;20029;-60
2022/01/09 04:23:24;;;;;;;16.38;2.95;;;4.00;99.90;;;;;;5010261;28;20126;-60
2022/01/09 04:25:51;;;;;;;15.05;2.28;;;4.00;99.90;;;;;;5010331;28;20038;-59
2022/01/09 04:28:17;;;;;;;11.48;2.00;;;3.90;99.90;;;;;;5002695;28;20022;-57
2022/01/09 04:30:44;;;;;;;10.68;1.40;;;3.90;99.90;;;;;;5011488;28;20426;-58
2022/01/09 04:33:10;;;;;;;12.90;2.05;;;3.80;99.90;;;;;;5010952;28;20038;-58
2022/01/09 04:35:37;;;;;;;6.75;1.58;;;3.70;99.90;;;;;;5010906;28;20555;-58
2022/01/09 04:38:03;;;;;;;8.35;1.50;;;3.70;99.90;;;;;;5009839;28;20510;-59
2022/01/09 04:40:29;;;;;;;5.13;1.42;;;3.70;99.90;;;;;;5011957;28;20032;-57
2022/01/09 04:43:00;;;;;;;3.53;1.40;;;3.60;99.90;;;;;;5010502;28;20034;-59
2022/01/09 04:45:28;;;;;;;5.50;1.33;;;3.60;99.90;;;;;;5010591;28;20032;-55
2022/01/09 04:47:56;;;;;;;10.75;1.80;;;3.60;99.90;;;;;;5005131;28;20562;-57
2022/01/09 04:50:27;;;;;;;8.82;1.60;;;3.60;99.90;;;;;;5004499;28;20022;-59
2022/01/09 04:52:59;;;;;;;11.52;2.10;;;3.60;99.90;;;;;;5001559;28;20034;-60
2022/01/09 04:55:25;;;;;;;9.07;1.85;;;3.60;99.90;;;;;;5003349;28;20026;-58
2022/01/09 04:57:51;;;;;;;8.85;2.55;;;3.60;99.90;;;;;;5010360;28;20042;-57
2022/01/09 05:00:20;;;;;;;13.25;2.97;;;3.70;99.90;;;;;;5010826;28;20044;-58
2022/01/09 05:02:45;;;;;;;25.35;4.32;;;3.70;99.90;;;;;;5009880;28;20048;-58
2022/01/09 05:05:11;;;;;;;11.15;3.13;;;3.80;99.90;;;;;;5010824;28;20034;-60
2022/01/09 05:07:38;;;;;;;43.95;9.18;;;3.80;99.90;;;;;;5004890;28;20080;-60
2022/01/09 05:10:07;;;;;;;39.97;7.32;;;4.00;99.90;;;;;;5009478;28;20495;-60
2022/01/09 05:12:33;;;;;;;46.92;8.70;;;4.10;99.90;;;;;;5008140;28;20100;-60
2022/01/09 05:14:59;;;;;;;38.47;8.38;;;4.20;99.90;;;;;;5006234;28;20033;-59
2022/01/09 05:17:25;;;;;;;46.42;9.05;;;4.30;99.90;;;;;;5009686;28;20022;-60
2022/01/09 05:19:52;;;;;;;31.27;6.25;;;4.40;99.90;;;;;;5007769;28;20033;-59
2022/01/09 05:22:19;;;;;;;37.35;6.82;;;4.40;99.90;;;;;;5000585;28;20026;-60
2022/01/09 05:24:44;;;;;;;43.75;6.88;;;4.40;99.90;;;;;;5005067;28;20053;-59
2022/01/09 05:27:10;;;;;;;43.08;9.80;;;4.40;99.90;;;;;;5008252;28;20428;-59
2022/01/09 05:29:36;;;;;;;42.38;8.70;;;4.40;99.90;;;;;;5013506;28;20034;-59
2022/01/09 05:32:01;;;;;;;41.70;7.15;;;4.40;99.90;;;;;;5017664;28;20040;-59
2022/01/09 05:34:27;;;;;;;31.83;6.57;;;4.40;99.90;;;;;;5008303;28;20022;-60
2022/01/09 05:36:55;;;;;;;39.30;6.80;;;4.50;99.90;;;;;;5002860;28;20026;-59
2022/01/09 05:39:21;;;;;;;41.53;6.70;;;4.50;99.90;;;;;;5003678;28;20048;-58
2022/01/09 05:41:46;;;;;;;37.83;8.07;;;4.50;99.90;;;;;;5009632;28;20503;-60
2022/01/09 05:44:12;;;;;;;29.23;7.22;;;4.50;99.90;;;;;;5009377;28;20036;-60
2022/01/09 05:46:38;;;;;;;29.35;6.03;;;4.40;99.90;;;;;;5010496;28;20022;-60
2022/01/09 05:49:03;;;;;;;28.65;6.38;;;4.50;99.90;;;;;;5008740;28;20523;-60
2022/01/09 05:51:32;;;;;;;28.42;6.47;;;4.40;99.90;;;;;;5001953;28;20096;-61
2022/01/09 05:53:57;;;;;;;37.63;8.90;;;4.40;99.90;;;;;;5002364;28;20031;-60
2022/01/09 05:56:23;;;;;;;25.88;4.70;;;4.40;99.90;;;;;;5019291;28;20057;-60
2022/01/09 05:58:48;;;;;;;32.78;7.85;;;4.40;99.90;;;;;;5011392;28;20125;-59
2022/01/09 06:01:14;;;;;;;42.83;6.07;;;4.40;99.90;;;;;;5010039;28;20034;-59
2022/01/09 06:03:39;;;;;;;29.30;5.97;;;4.30;99.90;;;;;;5008740;28;20040;-59
2022/01/09 06:06:06;;;;;;;27.67;6.53;;;4.30;99.90;;;;;;5010136;28;20022;-60
2022/01/09 06:08:32;;;;;;;44.17;6.40;;;4.30;99.90;;;;;;5005202;28;20053;-59
2022/01/09 06:10:58;;;;;;;25.38;5.05;;;4.30;99.90;;;;;;5009611;28;20050;-60
2022/01/09 06:13:23;;;;;;;36.67;5.63;;;4.30;99.90;;;;;;5008338;28;20026;-60
2022/01/09 06:15:49;;;;;;;27.58;5.65;;;4.30;99.90;;;;;;5009232;28;20072;-59
2022/01/09 06:18:18;;;;;;;34.40;6.00;;;4.30;99.90;;;;;;5007877;28;20514;-59
2022/01/09 06:20:44;;;;;;;24.52;6.35;;;4.30;99.90;;;;;;5001536;28;20526;-59
2022/01/09 06:23:09;;;;;;;33.25;5.25;;;4.30;99.90;;;;;;5007308;28;20033;-59
2022/01/09 06:25:35;;;;;;;25.98;4.65;;;4.30;99.90;;;;;;5007599;28;20109;-58
2022/01/09 06:28:00;;;;;;;33.78;5.10;;;4.30;99.90;;;;;;5006869;28;20029;-59
2022/01/09 06:30:26;;;;;;;29.75;5.38;;;4.30;99.90;;;;;;5006854;28;20494;-59
2022/01/09 06:32:51;;;;;;;16.67;4.20;;;4.30;99.90;;;;;;5007556;28;20030;-58
2022/01/09 06:35:17;;;;;;;24.02;5.20;;;4.30;99.90;;;;;;5009344;28;20523;-59
2022/01/09 06:37:43;;;;;;;26.65;5.05;;;4.30;99.90;;;;;;4999833;28;20034;-57
2022/01/09 06:40:09;;;;;;;25.00;4.30;;;4.30;99.90;;;;;;5008803;28;20025;-59
2022/01/09 06:42:35;;;;;;;29.42;4.38;;;4.30;99.90;;;;;;5008200;28;20022;-59
2022/01/09 06:45:00;;;;;;;23.42;4.25;;;4.30;99.90;;;;;;5007765;28;20041;-59
2022/01/09 06:47:26;;;;;;;27.75;4.32;;;4.30;99.90;;;;;;5004756;28;20022;-59
2022/01/09 06:49:51;;;;;;;19.55;3.28;;;4.20;99.90;;;;;;5003931;28;20030;-59
2022/01/09 06:52:17;;;;;;;27.88;4.47;;;4.20;99.90;;;;;;5004090;28;20099;-59
2022/01/09 06:54:43;;;;;;;26.52;3.90;;;4.20;99.90;;;;;;5003726;28;20030;-60
2022/01/09 06:57:08;;;;;;;24.20;4.10;;;4.20;99.90;;;;;;5008576;28;20435;-60
2022/01/09 06:59:34;;;;;;;25.67;3.88;;;4.20;99.90;;;;;;5008560;28;20511;-59
2022/01/09 07:01:59;;;;;;;17.42;4.00;;;4.20;99.90;;;;;;5010112;28;20030;-59
2022/01/09 07:04:25;;;;;;;24.75;3.85;;;4.20;99.90;;;;;;5011132;28;20067;-56
2022/01/09 07:09:30;;;;;;;31.55;4.65;;;4.20;99.90;;;;;;5100095;27;20418;-59
2022/01/09 07:11:55;;;;;;;20.17;3.78;;;4.20;99.90;;;;;;5085447;28;20094;-58
2022/01/09 07:14:21;;;;;;;21.65;3.42;;;4.20;99.90;;;;;;5085321;28;20033;-59
2022/01/09 07:16:47;;;;;;;21.63;4.03;;;4.20;99.90;;;;;;5085244;28;20107;-59
2022/01/09 07:19:12;;;;;;;19.10;4.88;;;4.20;99.90;;;;;;5083289;28;20447;-60
2022/01/09 07:21:38;;;;;;;23.85;5.15;;;4.20;99.90;;;;;;5087780;28;20029;-59
2022/01/09 07:24:04;;;;;;;20.17;5.47;;;4.20;99.90;;;;;;5078890;28;20029;-59
2022/01/09 07:26:29;;;;;;;31.38;6.40;;;4.20;99.90;;;;;;5084642;28;20036;-59
2022/01/09 07:28:55;;;;;;;21.67;4.03;;;4.20;99.90;;;;;;5081659;28;20044;-59
2022/01/09 07:31:20;;;;;;;31.27;4.05;;;4.20;99.90;;;;;;5083397;28;20449;-60
2022/01/09 07:33:46;;;;;;;19.75;3.80;;;4.20;99.90;;;;;;5082018;28;20035;-59
2022/01/09 07:36:12;;;;;;;23.08;3.88;;;4.20;99.90;;;;;;5087179;28;20143;-59
2022/01/09 07:38:37;;;;;;;25.63;3.58;;;4.20;99.90;;;;;;5085734;28;20081;-59
2022/01/09 07:41:03;;;;;;;27.70;5.22;;;4.20;99.90;;;;;;5085139;28;20037;-59
2022/01/09 07:43:28;;;;;;;25.13;6.95;;;4.20;99.90;;;;;;5085585;28;20036;-60
2022/01/09 07:45:54;;;;;;;13.07;2.85;;;4.20;99.90;;;;;;5086829;28;20035;-60
2022/01/09 07:48:23;;;;;;;23.88;3.90;;;4.20;99.90;;;;;;5082051;28;20081;-59
2022/01/09 07:50:49;;;;;;;20.52;4.05;;;4.20;99.90;;;;;;5085071;28;20035;-59
2022/01/09 07:53:17;;;;;;;24.40;5.43;;;4.20;99.90;;;;;;5079741;28;20819;-58
2022/01/09 07:55:43;;;;;;;25.05;4.10;;;4.20;99.90;;;;;;5083209;28;20489;-59
2022/01/09 07:58:08;;;;;;;23.67;5.15;;;4.20;99.90;;;;;;5080476;28;20040;-59
2022/01/09 08:00:34;;;;;;;37.08;4.30;;;4.30;99.90;;;;;;5084219;28;20101;-59
2022/01/09 08:03:00;;;;;;;20.50;3.22;;;4.30;99.90;;;;;;5063853;28;20047;-59
2022/01/09 08:05:25;;;;;;;20.60;4.00;;;4.20;99.90;;;;;;5083901;28;20032;-59
2022/01/09 08:07:51;;;;;;;18.23;4.53;;;4.20;99.90;;;;;;5077740;28;20084;-58
2022/01/09 08:10:16;;;;;;;28.40;5.03;;;4.30;99.90;;;;;;5079775;28;20120;-59
2022/01/09 08:12:42;;;;;;;14.07;4.13;;;4.30;99.90;;;;;;5080855;28;20027;-64
2022/01/09 08:15:08;;;;;;;17.27;4.57;;;4.30;99.90;;;;;;5086850;28;20028;-59
2022/01/09 08:17:34;;;;;;;20.77;3.70;;;4.30;99.90;;;;;;5085924;28;20024;-60
2022/01/09 08:20:00;;;;;;;23.88;3.55;;;4.30;99.90;;;;;;5077032;28;20094;-60
2022/01/09 08:22:29;;;;;;;18.23;4.03;;;4.30;99.90;;;;;;5069645;28;20029;-59
2022/01/09 08:24:55;;;;;;;16.13;3.63;;;4.30;99.90;;;;;;5069573;28;20044;-59
2022/01/09 08:27:21;;;;;;;24.60;4.85;;;4.30;99.90;;;;;;5056982;28;20558;-59
2022/01/09 08:29:46;;;;;;;19.33;4.55;;;4.30;99.90;;;;;;5067198;28;20095;-59
2022/01/09 08:32:13;;;;;;;20.02;3.75;;;4.30;99.90;;;;;;5071127;28;20024;-59
2022/01/09 08:34:39;;;;;;;20.35;3.60;;;4.30;99.90;;;;;;5065569;28;20039;-59
2022/01/09 08:37:09;;;;;;;16.83;3.30;;;4.30;99.90;;;;;;5068787;28;20064;-58
2022/01/09 08:39:35;;;;;;;23.80;3.17;;;4.30;99.90;;;;;;5068839;28;20418;-60
2022/01/09 08:42:01;;;;;;;14.00;3.63;;;4.30;99.90;;;;;;5066391;28;20020;-60
2022/01/09 08:44:26;;;;;;;14.25;2.88;;;4.30;99.90;;;;;;5070086;28;20029;-59
2022/01/09 08:46:52;;;;;;;17.08;3.38;;;4.30;99.90;;;;;;5068746;28;20133;-60
2022/01/09 08:49:17;;;;;;;22.55;3.35;;;4.30;99.90;;;;;;5069143;28;20027;-58
2022/01/09 08:51:43;;;;;;;18.90;3.60;;;4.30;99.90;;;;;;5072245;28;20385;-60
2022/01/09 08:54:08;;;;;;;11.82;2.97;;;4.30;99.90;;;;;;5067411;28;20017;-59
2022/01/09 08:56:36;;;;;;;19.05;3.88;;;4.40;99.90;;;;;;5072110;28;20040;-60
2022/01/09 08:59:02;;;;;;;23.10;3.40;;;4.40;99.90;;;;;;5067598;28;20036;-58
2022/01/09 09:01:28;;;;;;;13.57;3.20;;;4.40;99.90;;;;;;5070535;28;20028;-60
2022/01/09 09:03:53;;;;;;;16.88;3.95;;;4.50;99.90;;;;;;5066000;28;20035;-60
2022/01/09 09:06:19;;;;;;;8.32;3.20;;;4.40;99.90;;;;;;5068300;28;20028;-60
2022/01/09 09:08:45;;;;;;;19.55;3.88;;;4.40;99.90;;;;;;5063874;28;20070;-59
2022/01/09 09:11:12;;;;;;;19.88;4.13;;;4.40;99.90;;;;;;5068879;28;20101;-60
2022/01/09 09:13:38;;;;;;;17.23;4.85;;;4.50;99.90;;;;;;5067604;28;20539;-60
2022/01/09 09:16:04;;;;;;;18.75;4.55;;;4.40;99.90;;;;;;5067653;28;20063;-59
2022/01/09 09:18:30;;;;;;;11.50;2.72;;;4.40;99.90;;;;;;5070944;28;20127;-59
2022/01/09 09:20:57;;;;;;;23.83;3.60;;;4.40;99.90;;;;;;5061874;28;20116;-60
2022/01/09 09:23:22;;;;;;;17.13;3.10;;;4.50;99.90;;;;;;5063590;28;20047;-60
2022/01/09 09:25:49;;;;;;;16.73;4.03;;;4.40;99.90;;;;;;5070077;28;20036;-60
2022/01/09 09:28:15;;;;;;;22.05;6.38;;;4.50;99.90;;;;;;5065226;28;20513;-60
2022/01/09 09:30:41;;;;;;;30.52;7.35;;;4.50;99.90;;;;;;5068355;28;20044;-60
2022/01/09 09:33:06;;;;;;;23.30;6.03;;;4.60;99.90;;;;;;5068589;28;20025;-60
2022/01/09 09:35:33;;;;;;;17.58;3.80;;;4.70;99.90;;;;;;5071524;28;20032;-60
2022/01/09 09:37:59;;;;;;;30.77;9.10;;;4.60;99.90;;;;;;5069191;28;20033;-60
2022/01/09 09:40:27;;;;;;;17.85;5.72;;;4.60;99.90;;;;;;5068783;28;20494;-60
2022/01/09 09:42:54;;;;;;;29.95;12.52;;;4.70;99.90;;;;;;5066276;28;20033;-60
2022/01/09 09:45:20;;;;;;;17.88;4.15;;;4.70;99.90;;;;;;5071529;28;20040;-59
2022/01/09 09:47:46;;;;;;;14.95;3.63;;;4.70;99.90;;;;;;5054656;28;20032;-59
2022/01/09 09:50:14;;;;;;;15.93;4.30;;;4.70;99.90;;;;;;5069456;28;20032;-61
2022/01/09 09:52:42;;;;;;;21.60;3.72;;;4.70;99.90;;;;;;5070966;28;20031;-59
2022/01/09 09:55:07;;;;;;;10.27;3.08;;;4.60;99.90;;;;;;5067228;28;20031;-60
2022/01/09 09:57:33;;;;;;;28.15;6.57;;;4.70;99.90;;;;;;5067890;28;20107;-60
2022/01/09 10:00:11;;;;;;;13.93;2.78;;;4.70;99.90;;;;;;5069563;28;20035;-60
2022/01/09 10:02:49;;;;;;;15.75;3.00;;;4.70;99.90;;;;;;5067921;28;20025;-60
2022/01/09 10:05:18;;;;;;;11.10;3.17;;;4.60;99.90;;;;;;5069211;28;20405;-60
2022/01/09 10:07:44;;;;;;;18.08;3.35;;;4.70;99.90;;;;;;5070699;28;20029;-59
2022/01/09 10:10:21;;;;;;;12.13;3.25;;;4.70;99.90;;;;;;5065631;28;20118;-60
2022/01/09 10:12:48;;;;;;;15.07;3.10;;;4.70;99.90;;;;;;5057790;28;20495;-60
2022/01/09 10:15:19;;;;;;;17.05;4.60;;;4.70;99.90;;;;;;5050540;28;20059;-59
2022/01/09 10:17:50;;;;;;;15.32;5.88;;;4.60;99.90;;;;;;5058597;28;20024;-59
2022/01/09 10:20:22;;;;;;;13.27;3.90;;;4.70;99.90;;;;;;5070372;28;20505;-61
2022/01/09 10:22:54;;;;;;;15.65;4.82;;;4.60;99.90;;;;;;5057847;28;20032;-58
2022/01/09 10:25:30;;;;;;;17.55;6.22;;;4.70;99.90;;;;;;5061217;28;20099;-60
2022/01/09 10:27:58;;;;;;;23.17;6.20;;;4.60;99.90;;;;;;5062170;28;20109;-59
2022/01/09 10:30:27;;;;;;;17.67;5.88;;;4.60;99.90;;;;;;5058711;28;20040;-57
2022/01/09 10:32:55;;;;;;;24.95;8.48;;;4.50;99.90;;;;;;5055684;28;20028;-59
2022/01/09 10:35:21;;;;;;;24.83;6.20;;;4.50;99.90;;;;;;5064565;28;20024;-59
2022/01/09 10:37:49;;;;;;;18.23;4.18;;;4.50;99.90;;;;;;5064230;28;20025;-58
2022/01/09 10:40:22;;;;;;;16.20;4.20;;;4.50;99.90;;;;;;5061735;28;20039;-60
2022/01/09 10:43:00;;;;;;;15.38;3.70;;;4.50;99.90;;;;;;5065477;28;20032;-59
2022/01/09 10:45:26;;;;;;;19.50;5.60;;;4.50;99.90;;;;;;5071679;28;20041;-58
2022/01/09 10:48:02;;;;;;;22.42;7.28;;;4.50;99.90;;;;;;5079037;28;20036;-60
2022/01/09 10:50:30;;;;;;;23.38;5.88;;;4.60;99.90;;;;;;5060467;28;20040;-60
2022/01/09 10:53:17;;;;;;;14.05;3.67;;;4.60;99.90;;;;;;5050805;28;20577;-59
2022/01/09 10:55:44;;;;;;;16.58;5.43;;;4.70;99.90;;;;;;5051299;28;20553;-60
2022/01/09 10:58:21;;;;;;;16.67;3.70;;;4.70;99.90;;;;;;5052944;28;20103;-60
2022/01/09 11:00:48;;;;;;;11.65;2.83;;;4.70;99.90;;;;;;5060375;28;20036;-59
2022/01/09 11:03:14;;;;;;;12.13;2.75;;;4.70;99.90;;;;;;5058409;28;20433;-59
2022/01/09 11:05:40;;;;;;;18.70;3.45;;;4.70;99.90;;;;;;5058438;28;20538;-59
2022/01/09 11:08:07;;;;;;;16.23;3.58;;;4.80;99.90;;;;;;5063323;28;20185;-59
2022/01/09 11:10:33;;;;;;;21.35;7.03;;;4.90;99.90;;;;;;5070113;28;20021;-58
2022/01/09 11:13:01;;;;;;;15.70;4.00;;;4.90;99.90;;;;;;5059967;28;20441;-58
2022/01/09 11:15:29;;;;;;;27.98;6.88;;;5.00;99.90;;;;;;5057904;28;20482;-59
2022/01/09 11:17:58;;;;;;;22.83;5.95;;;4.90;99.90;;;;;;5068916;28;20101;-58
2022/01/09 11:20:24;;;;;;;18.55;4.38;;;5.00;99.90;;;;;;5050614;28;20035;-61
2022/01/09 11:22:53;;;;;;;35.67;9.88;;;5.00;99.90;;;;;;5059980;28;20029;-60
2022/01/09 11:25:42;;;;;;;16.77;5.85;;;5.00;99.90;;;;;;5065305;28;20040;-59
2022/01/09 11:28:27;;;;;;;78.35;20.00;;;4.90;99.90;;;;;;5067800;28;20027;-59
2022/01/09 11:31:07;;;;;;;42.13;13.27;;;5.00;99.90;;;;;;5058615;28;20185;-60
2022/01/09 11:33:41;;;;;;;38.67;12.27;;;4.90;99.90;;;;;;5062544;28;20055;-57
2022/01/09 11:36:37;;;;;;;25.13;7.95;;;4.90;99.90;;;;;;5068803;28;20024;-60
2022/01/09 11:39:17;;;;;;;19.77;6.65;;;4.90;99.90;;;;;;5064893;28;20031;-60
2022/01/09 11:41:44;;;;;;;30.48;14.65;;;4.90;99.90;;;;;;5057899;28;20067;-60
2022/01/09 11:44:14;;;;;;;19.65;6.07;;;5.00;99.90;;;;;;5060799;28;20029;-60
2022/01/09 11:46:59;;;;;;;18.70;4.88;;;4.90;99.90;;;;;;5063258;28;20040;-59
2022/01/09 11:49:31;;;;;;;24.05;5.05;;;4.80;99.90;;;;;;5057768;28;20513;-59
2022/01/09 11:52:00;;;;;;;23.35;6.25;;;4.80;99.90;;;;;;5057043;28;20559;-60
2022/01/09 11:54:27;;;;;;;24.20;7.45;;;4.80;99.90;;;;;;5060311;28;20560;-58
2022/01/09 11:57:10;;;;;;;27.08;9.85;;;4.90;99.90;;;;;;5071269;28;20028;-59
2022/01/09 11:59:38;;;;;;;39.05;11.88;;;5.00;99.90;;;;;;5063283;28;20037;-59
2022/01/09 12:02:32;;;;;;;46.08;16.98;;;5.00;99.90;;;;;;5051890;28;20033;-59
2022/01/09 12:05:06;;;;;;;34.10;12.13;;;5.10;99.90;;;;;;5059929;28;20041;-59
2022/01/09 12:07:34;;;;;;;;;;;5.20;99.90;;;;;;5068424;28;20112;-60
2022/01/09 12:10:22;;;;;;;18.85;4.82;;;5.30;99.90;;;;;;5065626;28;20420;-58
2022/01/09 12:12:49;;;;;;;10.98;3.22;;;5.50;99.90;;;;;;5053574;28;20119;-61
2022/01/09 12:15:34;;;;;;;14.38;2.70;;;5.40;99.90;;;;;;5057433;28;20567;-59
2022/01/09 12:18:03;;;;;;;12.82;3.10;;;5.40;99.90;;;;;;5054292;28;20503;-59
2022/01/09 12:20:31;;;;;;;27.15;6.28;;;5.50;99.90;;;;;;5063660;28;20024;-60
2022/01/09 12:23:06;;;;;;;11.05;3.38;;;5.40;99.90;;;;;;5059768;28;20038;-60
2022/01/09 12:25:34;;;;;;;12.38;3.13;;;5.30;99.90;;;;;;5065782;28;20086;-60
2022/01/09 12:28:10;;;;;;;10.50;4.15;;;5.30;99.90;;;;;;5065946;28;20040;-62
2022/01/09 12:30:38;;;;;;;13.23;3.75;;;5.20;99.90;;;;;;5061063;28;20023;-59
2022/01/09 12:33:06;;;;;;;15.10;4.22;;;5.20;99.90;;;;;;5063005;28;20095;-60
2022/01/09 12:35:33;;;;;;;13.82;3.83;;;5.30;99.90;;;;;;5053934;28;20060;-60
2022/01/09 12:38:00;;;;;;;21.48;4.72;;;5.30;99.90;;;;;;5061859;28;20482;-57
2022/01/09 12:40:28;;;;;;;12.65;3.60;;;5.30;99.90;;;;;;5072601;28;20056;-57
2022/01/09 12:42:56;;;;;;;18.17;3.42;;;5.20;99.90;;;;;;5051797;28;20506;-60
2022/01/09 12:45:37;;;;;;;13.80;3.90;;;5.20;99.90;;;;;;5069525;28;20074;-59
2022/01/09 12:48:06;;;;;;;22.67;5.95;;;5.10;99.90;;;;;;5065612;28;20570;-58
2022/01/09 12:50:36;;;;;;;18.73;3.53;;;5.20;99.90;;;;;;5070969;28;20027;-60
2022/01/09 12:53:29;;;;;;;9.85;3.58;;;5.20;99.90;;;;;;5068902;28;20042;-59
2022/01/09 12:56:06;;;;;;;19.23;6.00;;;5.30;99.90;;;;;;5068269;28;20021;-60
2022/01/09 12:58:33;;;;;;;18.00;4.55;;;5.30;99.90;;;;;;5068683;28;20040;-59